DTTF

Gafsa Ksar International Airport

Gafsa, Tunisia
METAR DTTF 241300Z VRB04KT 9999 FEW026 31/12 Q1016 NOSIG
Observed Flight Rules
Sep-24 @ 13:00 UTC (36 minutes ago) Visual Flight Rules
Wind Visibility Clouds
Variable at 4 knots 10,000+ meters
  • Few at 2,600' AGL
Temperatures Readings
Current 31°C / 88°F
Dewpoint 12°C / 54°F
Humidity 31%
Altimeter 30" Hg
Pressure 1016 hPa
Elevation 314
METAR DTTF 241300Z VRB04KT 9999 FEW026 31/12 Q1016 NOSIG
Observed Flight Rules
Sep-24 @ 13:00 UTC
(36 minutes ago)
VFR
Wind Visibility
Variable at 4 knots 10,000+ meters
Clouds
  • Few at 2,600' AGL
Temperature Dewpoint
31°C / 88°F 12°C / 54°F
Humidity Altimeter Pressure
31% 30" Hg 1016 hPa